sensor_id;sensor_type;location;lat;lon;timestamp;pressure;altitude;pressure_sealevel;temperature;humidity
44751;BME280;30477;48.224;11.470;2023-12-29T00:02:20;96205.44;;;8.41;60.95
44751;BME280;30477;48.224;11.470;2023-12-29T00:04:45;96197.09;;;8.37;60.85
44751;BME280;30477;48.224;11.470;2023-12-29T00:07:11;96197.09;;;8.37;60.95
44751;BME280;30477;48.224;11.470;2023-12-29T00:09:36;96201.44;;;8.37;60.91
44751;BME280;30477;48.224;11.470;2023-12-29T00:12:06;96194.09;;;8.32;60.97
44751;BME280;30477;48.224;11.470;2023-12-29T00:14:32;96201.66;;;8.33;61.09
44751;BME280;30477;48.224;11.470;2023-12-29T00:16:58;96188.66;;;8.35;60.96
44751;BME280;30477;48.224;11.470;2023-12-29T00:19:23;96185.38;;;8.33;61.11
44751;BME280;30477;48.224;11.470;2023-12-29T00:21:48;96186.09;;;8.35;61.21
44751;BME280;30477;48.224;11.470;2023-12-29T00:24:13;96176.97;;;8.31;61.25
44751;BME280;30477;48.224;11.470;2023-12-29T00:26:39;96180.72;;;8.27;61.50
44751;BME280;30477;48.224;11.470;2023-12-29T00:29:04;96175.44;;;8.28;61.39
44751;BME280;30477;48.224;11.470;2023-12-29T00:31:31;96174.53;;;8.29;61.67
44751;BME280;30477;48.224;11.470;2023-12-29T00:33:57;96168.78;;;8.26;61.78
44751;BME280;30477;48.224;11.470;2023-12-29T00:36:22;96163.84;;;8.23;61.96
44751;BME280;30477;48.224;11.470;2023-12-29T00:38:47;96165.75;;;8.21;62.24
44751;BME280;30477;48.224;11.470;2023-12-29T00:41:13;96162.47;;;8.19;62.28
44751;BME280;30477;48.224;11.470;2023-12-29T00:43:38;96163.84;;;8.23;62.20
44751;BME280;30477;48.224;11.470;2023-12-29T00:46:04;96159.78;;;8.20;62.32
44751;BME280;30477;48.224;11.470;2023-12-29T00:48:33;96163.16;;;8.21;62.58
44751;BME280;30477;48.224;11.470;2023-12-29T00:51:00;96148.38;;;8.23;62.56
44751;BME280;30477;48.224;11.470;2023-12-29T00:53:26;96155.41;;;8.21;62.42
44751;BME280;30477;48.224;11.470;2023-12-29T00:55:52;96157.19;;;8.20;62.61
44751;BME280;30477;48.224;11.470;2023-12-29T00:58:17;96155.41;;;8.21;62.52
44751;BME280;30477;48.224;11.470;2023-12-29T01:00:42;96151.91;;;8.22;62.54
44751;BME280;30477;48.224;11.470;2023-12-29T01:03:08;96150.41;;;8.19;62.62
44751;BME280;30477;48.224;11.470;2023-12-29T01:05:33;96150.53;;;8.18;62.50
44751;BME280;30477;48.224;11.470;2023-12-29T01:07:58;96148.88;;;8.17;62.82
44751;BME280;30477;48.224;11.470;2023-12-29T01:10:24;96166.81;;;8.18;62.80
44751;BME280;30477;48.224;11.470;2023-12-29T01:12:49;96166.81;;;8.18;62.70
44751;BME280;30477;48.224;11.470;2023-12-29T01:15:14;96165.88;;;8.19;62.79
44751;BME280;30477;48.224;11.470;2023-12-29T01:17:40;96169.28;;;8.20;62.39
44751;BME280;30477;48.224;11.470;2023-12-29T01:20:06;96170.19;;;8.19;62.51
44751;BME280;30477;48.224;11.470;2023-12-29T01:22:31;96172.78;;;8.19;62.59
44751;BME280;30477;48.224;11.470;2023-12-29T01:24:59;96171.16;;;8.18;62.77
44751;BME280;30477;48.224;11.470;2023-12-29T01:27:25;96169.28;;;8.20;62.38
44751;BME280;30477;48.224;11.470;2023-12-29T01:29:50;96178.31;;;8.14;62.36
44751;BME280;30477;48.224;11.470;2023-12-29T01:32:17;96171.38;;;8.14;62.21
44751;BME280;30477;48.224;11.470;2023-12-29T01:34:43;96170.56;;;8.14;62.10
44751;BME280;30477;48.224;11.470;2023-12-29T01:37:08;96176.78;;;8.11;62.11
44751;BME280;30477;48.224;11.470;2023-12-29T01:39:33;96168.94;;;8.13;61.86
44751;BME280;30477;48.224;11.470;2023-12-29T01:42:00;96175.84;;;8.12;61.83
44751;BME280;30477;48.224;11.470;2023-12-29T01:44:25;96166.47;;;8.11;61.80
44751;BME280;30477;48.224;11.470;2023-12-29T01:46:53;96162.84;;;8.14;61.73
44751;BME280;30477;48.224;11.470;2023-12-29T01:49:19;96168.94;;;8.13;61.68
44751;BME280;30477;48.224;11.470;2023-12-29T01:51:48;96164.03;;;8.10;61.51
44751;BME280;30477;48.224;11.470;2023-12-29T01:54:14;96163.91;;;8.11;61.33
44751;BME280;30477;48.224;11.470;2023-12-29T01:56:40;96155.22;;;8.12;61.32
44751;BME280;30477;48.224;11.470;2023-12-29T01:59:06;96158.63;;;8.13;61.01
44751;BME280;30477;48.224;11.470;2023-12-29T02:01:31;96154.53;;;8.10;60.76
44751;BME280;30477;48.224;11.470;2023-12-29T02:03:57;96142.00;;;8.06;60.84
44751;BME280;30477;48.224;11.470;2023-12-29T02:06:23;96146.34;;;8.05;60.83
44751;BME280;30477;48.224;11.470;2023-12-29T02:08:49;96152.31;;;8.06;60.77
44751;BME280;30477;48.224;11.470;2023-12-29T02:11:16;96144.72;;;8.04;60.61
44751;BME280;30477;48.224;11.470;2023-12-29T02:13:42;96143.34;;;8.00;60.45
44751;BME280;30477;48.224;11.470;2023-12-29T02:16:12;96148.72;;;7.97;60.27
44751;BME280;30477;48.224;11.470;2023-12-29T02:18:42;96150.59;;;7.95;60.39
44751;BME280;30477;48.224;11.470;2023-12-29T02:21:11;96156.00;;;7.92;60.34
44751;BME280;30477;48.224;11.470;2023-12-29T02:23:36;96154.13;;;7.94;60.26
44751;BME280;30477;48.224;11.470;2023-12-29T02:26:07;96144.63;;;7.95;60.18
44751;BME280;30477;48.224;11.470;2023-12-29T02:28:34;96141.03;;;7.86;59.92
44751;BME280;30477;48.224;11.470;2023-12-29T02:31:14;96134.22;;;7.85;59.90
44751;BME280;30477;48.224;11.470;2023-12-29T02:33:42;96131.53;;;7.86;59.81
44751;BME280;30477;48.224;11.470;2023-12-29T02:36:10;96132.34;;;7.87;59.67
44751;BME280;30477;48.224;11.470;2023-12-29T02:38:37;96122.72;;;7.89;59.61
44751;BME280;30477;48.224;11.470;2023-12-29T02:41:03;96118.16;;;7.92;59.24
44751;BME280;30477;48.224;11.470;2023-12-29T02:43:31;96119.66;;;7.95;59.14
44751;BME280;30477;48.224;11.470;2023-12-29T02:45:56;96119.78;;;7.93;58.80
44751;BME280;30477;48.224;11.470;2023-12-29T02:48:21;96113.38;;;7.88;58.51
44751;BME280;30477;48.224;11.470;2023-12-29T02:50:47;96113.50;;;7.86;58.53
44751;BME280;30477;48.224;11.470;2023-12-29T02:53:12;96107.97;;;7.91;58.43
44751;BME280;30477;48.224;11.470;2023-12-29T02:55:37;96099.31;;;7.92;58.10
44751;BME280;30477;48.224;11.470;2023-12-29T02:58:03;96099.03;;;7.95;57.91
44751;BME280;30477;48.224;11.470;2023-12-29T03:00:28;96093.19;;;7.93;57.61
44751;BME280;30477;48.224;11.470;2023-12-29T03:02:54;96094.97;;;7.92;57.55
44751;BME280;30477;48.224;11.470;2023-12-29T03:05:20;96083.34;;;7.98;57.46
44751;BME280;30477;48.224;11.470;2023-12-29T03:07:45;96088.50;;;7.98;57.29
44751;BME280;30477;48.224;11.470;2023-12-29T03:10:11;96093.66;;;7.98;56.97
44751;BME280;30477;48.224;11.470;2023-12-29T03:12:36;96095.28;;;7.99;57.08
44751;BME280;30477;48.224;11.470;2023-12-29T03:15:02;96097.44;;;7.94;57.02
44751;BME280;30477;48.224;11.470;2023-12-29T03:17:27;96099.53;;;7.89;57.17
44751;BME280;30477;48.224;11.470;2023-12-29T03:19:53;96087.59;;;7.88;56.89
44751;BME280;30477;48.224;11.470;2023-12-29T03:22:18;96093.13;;;7.83;57.31
44751;BME280;30477;48.224;11.470;2023-12-29T03:24:43;96086.91;;;7.86;57.16
44751;BME280;30477;48.224;11.470;2023-12-29T03:27:09;96080.81;;;7.87;57.06
44751;BME280;30477;48.224;11.470;2023-12-29T03:29:35;96084.06;;;7.89;56.69
44751;BME280;30477;48.224;11.470;2023-12-29T03:32:00;96085.72;;;7.90;56.49
44751;BME280;30477;48.224;11.470;2023-12-29T03:34:25;96085.16;;;7.86;56.30
44751;BME280;30477;48.224;11.470;2023-12-29T03:36:51;96082.69;;;7.85;56.38
44751;BME280;30477;48.224;11.470;2023-12-29T03:39:16;96089.38;;;7.87;56.29
44751;BME280;30477;48.224;11.470;2023-12-29T03:41:41;96087.59;;;7.88;55.99
44751;BME280;30477;48.224;11.470;2023-12-29T03:44:07;96097.91;;;7.88;55.90
44751;BME280;30477;48.224;11.470;2023-12-29T03:46:32;96087.84;;;7.85;55.74
44751;BME280;30477;48.224;11.470;2023-12-29T03:48:58;96093.00;;;7.85;55.64
44751;BME280;30477;48.224;11.470;2023-12-29T03:51:23;96090.56;;;7.83;55.50
44751;BME280;30477;48.224;11.470;2023-12-29T03:53:48;96087.03;;;7.84;55.62
44751;BME280;30477;48.224;11.470;2023-12-29T03:56:15;96086.22;;;7.84;55.29
44751;BME280;30477;48.224;11.470;2023-12-29T03:58:47;96091.94;;;7.87;55.14
44751;BME280;30477;48.224;11.470;2023-12-29T04:01:16;96089.94;;;7.91;55.11
44751;BME280;30477;48.224;11.470;2023-12-29T04:03:42;96078.44;;;7.95;54.78
44751;BME280;30477;48.224;11.470;2023-12-29T04:06:08;96084.28;;;7.97;54.80
44751;BME280;30477;48.224;11.470;2023-12-29T04:08:37;96077.25;;;7.99;54.80
44751;BME280;30477;48.224;11.470;2023-12-29T04:11:04;96082.50;;;7.98;54.67
44751;BME280;30477;48.224;11.470;2023-12-29T04:13:29;96069.50;;;7.99;54.56
44751;BME280;30477;48.224;11.470;2023-12-29T04:15:55;96067.63;;;8.01;54.42
44751;BME280;30477;48.224;11.470;2023-12-29T04:18:21;96067.41;;;8.04;54.17
44751;BME280;30477;48.224;11.470;2023-12-29T04:20:47;96061.53;;;8.02;53.93
44751;BME280;30477;48.224;11.470;2023-12-29T04:23:12;96069.00;;;8.05;53.90
44751;BME280;30477;48.224;11.470;2023-12-29T04:25:38;96076.63;;;8.07;53.97
44751;BME280;30477;48.224;11.470;2023-12-29T04:28:03;96069.44;;;8.10;53.73
44751;BME280;30477;48.224;11.470;2023-12-29T04:30:29;96068.53;;;8.11;53.76
44751;BME280;30477;48.224;11.470;2023-12-29T04:32:54;96064.19;;;8.12;53.53
44751;BME280;30477;48.224;11.470;2023-12-29T04:35:19;96058.63;;;8.17;53.69
44751;BME280;30477;48.224;11.470;2023-12-29T04:37:45;96065.34;;;8.19;53.50
44751;BME280;30477;48.224;11.470;2023-12-29T04:40:12;96060.03;;;8.21;53.50
44751;BME280;30477;48.224;11.470;2023-12-29T04:42:37;96056.41;;;8.23;53.45
44751;BME280;30477;48.224;11.470;2023-12-29T04:45:04;96057.91;;;8.26;53.48
44751;BME280;30477;48.224;11.470;2023-12-29T04:47:29;96051.56;;;8.30;53.56
44751;BME280;30477;48.224;11.470;2023-12-29T04:49:55;96067.03;;;8.30;53.53
44751;BME280;30477;48.224;11.470;2023-12-29T04:52:21;96061.88;;;8.30;53.66
44751;BME280;30477;48.224;11.470;2023-12-29T04:54:46;96061.50;;;8.34;53.55
44751;BME280;30477;48.224;11.470;2023-12-29T04:57:11;96057.84;;;8.37;53.57
44751;BME280;30477;48.224;11.470;2023-12-29T04:59:36;96061.91;;;8.40;53.33
44751;BME280;30477;48.224;11.470;2023-12-29T05:02:02;96053.00;;;8.44;53.56
44751;BME280;30477;48.224;11.470;2023-12-29T05:04:27;96055.47;;;8.45;53.57
44751;BME280;30477;48.224;11.470;2023-12-29T05:06:53;96062.69;;;8.51;53.60
44751;BME280;30477;48.224;11.470;2023-12-29T05:09:18;96059.03;;;8.54;53.50
44751;BME280;30477;48.224;11.470;2023-12-29T05:11:43;96046.84;;;8.56;53.48
44751;BME280;30477;48.224;11.470;2023-12-29T05:14:09;96049.53;;;8.54;53.48
44751;BME280;30477;48.224;11.470;2023-12-29T05:16:35;96044.03;;;8.59;53.65
44751;BME280;30477;48.224;11.470;2023-12-29T05:19:00;96037.09;;;8.60;53.84
44751;BME280;30477;48.224;11.470;2023-12-29T05:21:26;96054.88;;;8.63;53.96
44751;BME280;30477;48.224;11.470;2023-12-29T05:23:52;96053.69;;;8.67;54.24
44751;BME280;30477;48.224;11.470;2023-12-29T05:26:17;96060.50;;;8.68;54.39
44751;BME280;30477;48.224;11.470;2023-12-29T05:28:42;96062.81;;;8.71;53.98
44751;BME280;30477;48.224;11.470;2023-12-29T05:31:08;96057.53;;;8.72;54.30
44751;BME280;30477;48.224;11.470;2023-12-29T05:33:34;96059.97;;;8.74;54.37
44751;BME280;30477;48.224;11.470;2023-12-29T05:36:06;96062.56;;;8.74;54.50
44751;BME280;30477;48.224;11.470;2023-12-29T05:38:33;96064.88;;;8.77;54.67
44751;BME280;30477;48.224;11.470;2023-12-29T05:40:58;96074.94;;;8.80;54.37
44751;BME280;30477;48.224;11.470;2023-12-29T05:43:26;96071.41;;;8.81;54.39
44751;BME280;30477;48.224;11.470;2023-12-29T05:45:51;96076.56;;;8.81;54.40
44751;BME280;30477;48.224;11.470;2023-12-29T05:48:17;96078.22;;;8.82;54.46
44751;BME280;30477;48.224;11.470;2023-12-29T05:50:42;96077.03;;;8.86;54.38
44751;BME280;30477;48.224;11.470;2023-12-29T05:53:07;96070.78;;;8.89;54.41
44751;BME280;30477;48.224;11.470;2023-12-29T05:55:33;96077.94;;;8.85;54.37
44751;BME280;30477;48.224;11.470;2023-12-29T05:57:58;96069.28;;;8.86;54.32
44751;BME280;30477;48.224;11.470;2023-12-29T06:00:23;96067.63;;;8.85;54.34
44751;BME280;30477;48.224;11.470;2023-12-29T06:02:49;96076.75;;;8.89;54.40
44751;BME280;30477;48.224;11.470;2023-12-29T06:05:15;96075.81;;;8.90;54.18
44751;BME280;30477;48.224;11.470;2023-12-29T06:07:40;96076.34;;;8.94;54.29
44751;BME280;30477;48.224;11.470;2023-12-29T06:10:06;96070.94;;;8.97;54.19
44751;BME280;30477;48.224;11.470;2023-12-29T06:12:33;96069.97;;;8.98;54.04
44751;BME280;30477;48.224;11.470;2023-12-29T06:14:58;96078.53;;;8.99;54.05
44751;BME280;30477;48.224;11.470;2023-12-29T06:17:24;96075.84;;;9.00;53.85
44751;BME280;30477;48.224;11.470;2023-12-29T06:19:49;96082.91;;;8.98;53.80
44751;BME280;30477;48.224;11.470;2023-12-29T06:22:14;96075.31;;;8.97;53.89
44751;BME280;30477;48.224;11.470;2023-12-29T06:24:40;96082.09;;;8.98;54.08
44751;BME280;30477;48.224;11.470;2023-12-29T06:27:09;96080.69;;;8.93;53.76
44751;BME280;30477;48.224;11.470;2023-12-29T06:29:35;96083.28;;;8.93;53.54
44751;BME280;30477;48.224;11.470;2023-12-29T06:32:02;96085.06;;;8.93;53.87
44751;BME280;30477;48.224;11.470;2023-12-29T06:34:27;96084.25;;;8.92;53.71
44751;BME280;30477;48.224;11.470;2023-12-29T06:36:52;96082.47;;;8.93;53.78
44751;BME280;30477;48.224;11.470;2023-12-29T06:39:17;96086.94;;;8.91;53.92
44751;BME280;30477;48.224;11.470;2023-12-29T06:41:43;96089.66;;;8.89;53.93
44751;BME280;30477;48.224;11.470;2023-12-29T06:44:08;96087.75;;;8.91;54.02
44751;BME280;30477;48.224;11.470;2023-12-29T06:46:34;96094.56;;;8.92;54.06
44751;BME280;30477;48.224;11.470;2023-12-29T06:49:01;96081.66;;;8.92;54.22
44751;BME280;30477;48.224;11.470;2023-12-29T06:51:27;96086.56;;;8.96;54.09
44751;BME280;30477;48.224;11.470;2023-12-29T06:53:53;96092.41;;;8.98;54.21
44751;BME280;30477;48.224;11.470;2023-12-29T06:56:18;96097.56;;;8.98;54.28
44751;BME280;30477;48.224;11.470;2023-12-29T06:58:44;96097.44;;;8.99;54.23
44751;BME280;30477;48.224;11.470;2023-12-29T07:01:10;96091.31;;;9.00;54.19
44751;BME280;30477;48.224;11.470;2023-12-29T07:03:35;96099.19;;;8.99;54.39
44751;BME280;30477;48.224;11.470;2023-12-29T07:06:01;96100.84;;;9.00;54.54
44751;BME280;30477;48.224;11.470;2023-12-29T07:08:27;96097.56;;;8.98;54.60
44751;BME280;30477;48.224;11.470;2023-12-29T07:10:52;96098.25;;;9.00;54.70
44751;BME280;30477;48.224;11.470;2023-12-29T07:13:18;96105.03;;;9.01;54.69
44751;BME280;30477;48.224;11.470;2023-12-29T07:15:44;96099.47;;;8.96;55.08
44751;BME280;30477;48.224;11.470;2023-12-29T07:18:10;96106.81;;;9.00;55.11
44751;BME280;30477;48.224;11.470;2023-12-29T07:20:35;96098.00;;;9.03;55.54
44751;BME280;30477;48.224;11.470;2023-12-29T07:23:00;96102.22;;;9.04;56.02
44751;BME280;30477;48.224;11.470;2023-12-29T07:25:26;96097.63;;;9.07;56.36
44751;BME280;30477;48.224;11.470;2023-12-29T07:27:51;96098.44;;;9.08;56.64
44751;BME280;30477;48.224;11.470;2023-12-29T07:30:18;96097.63;;;9.17;57.67
44751;BME280;30477;48.224;11.470;2023-12-29T07:32:43;96106.69;;;9.32;58.21
44751;BME280;30477;48.224;11.470;2023-12-29T07:35:09;96103.31;;;9.42;58.62
44751;BME280;30477;48.224;11.470;2023-12-29T07:37:34;96100.44;;;9.45;59.07
44751;BME280;30477;48.224;11.470;2023-12-29T07:39:59;96108.88;;;9.47;59.27
44751;BME280;30477;48.224;11.470;2023-12-29T07:42:25;96101.66;;;9.41;59.00
44751;BME280;30477;48.224;11.470;2023-12-29T07:44:50;96102.47;;;9.31;58.95
44751;BME280;30477;48.224;11.470;2023-12-29T07:47:16;96107.06;;;9.28;58.94
44751;BME280;30477;48.224;11.470;2023-12-29T07:49:42;96090.88;;;9.26;59.19
44751;BME280;30477;48.224;11.470;2023-12-29T07:52:07;96106.38;;;9.26;59.34
44751;BME280;30477;48.224;11.470;2023-12-29T07:54:33;96092.75;;;9.24;59.18
44751;BME280;30477;48.224;11.470;2023-12-29T07:56:58;96100.66;;;9.22;59.23
44751;BME280;30477;48.224;11.470;2023-12-29T07:59:24;96103.38;;;9.21;59.39
44751;BME280;30477;48.224;11.470;2023-12-29T08:01:50;96105.84;;;9.22;59.35
44751;BME280;30477;48.224;11.470;2023-12-29T08:04:15;96115.31;;;9.22;59.75
44751;BME280;30477;48.224;11.470;2023-12-29T08:06:40;96116.16;;;9.22;59.73
44751;BME280;30477;48.224;11.470;2023-12-29T08:09:06;96119.69;;;9.21;59.65
44751;BME280;30477;48.224;11.470;2023-12-29T08:11:32;96123.22;;;9.20;59.88
44751;BME280;30477;48.224;11.470;2023-12-29T08:13:57;96127.69;;;9.18;59.75
44751;BME280;30477;48.224;11.470;2023-12-29T08:16:23;96130.28;;;9.18;59.89
44751;BME280;30477;48.224;11.470;2023-12-29T08:18:49;96131.09;;;9.19;60.05
44751;BME280;30477;48.224;11.470;2023-12-29T08:21:19;96130.00;;;9.21;60.18
44751;BME280;30477;48.224;11.470;2023-12-29T08:23:48;96129.31;;;9.19;60.06
44751;BME280;30477;48.224;11.470;2023-12-29T08:26:14;96128.38;;;9.20;60.11
44751;BME280;30477;48.224;11.470;2023-12-29T08:28:40;96130.81;;;9.22;60.24
44751;BME280;30477;48.224;11.470;2023-12-29T08:31:08;96138.44;;;9.23;60.19
44751;BME280;30477;48.224;11.470;2023-12-29T08:33:34;96144.41;;;9.24;59.95
44751;BME280;30477;48.224;11.470;2023-12-29T08:36:02;96139.81;;;9.27;60.08
44751;BME280;30477;48.224;11.470;2023-12-29T08:38:28;96144.06;;;9.28;59.93
44751;BME280;30477;48.224;11.470;2023-12-29T08:40:54;96137.00;;;9.30;60.09
44751;BME280;30477;48.224;11.470;2023-12-29T08:43:19;96138.88;;;9.28;60.00
44751;BME280;30477;48.224;11.470;2023-12-29T08:45:49;96133.03;;;9.26;59.88
44751;BME280;30477;48.224;11.470;2023-12-29T08:48:15;96133.72;;;9.28;59.85
44751;BME280;30477;48.224;11.470;2023-12-29T08:50:41;96122.94;;;9.23;59.85
44751;BME280;30477;48.224;11.470;2023-12-29T08:53:06;96111.41;;;9.27;60.01
44751;BME280;30477;48.224;11.470;2023-12-29T08:55:32;96114.69;;;9.29;60.03
44751;BME280;30477;48.224;11.470;2023-12-29T08:57:57;96118.63;;;9.33;59.86
44751;BME280;30477;48.224;11.470;2023-12-29T09:00:23;96120.53;;;9.31;59.94
44751;BME280;30477;48.224;11.470;2023-12-29T09:02:48;96125.47;;;9.34;59.83
44751;BME280;30477;48.224;11.470;2023-12-29T09:05:13;96135.50;;;9.38;59.73
44751;BME280;30477;48.224;11.470;2023-12-29T09:07:39;96128.72;;;9.37;59.77
44751;BME280;30477;48.224;11.470;2023-12-29T09:10:05;96129.53;;;9.37;59.93
44751;BME280;30477;48.224;11.470;2023-12-29T09:12:34;96128.31;;;9.41;59.87
44751;BME280;30477;48.224;11.470;2023-12-29T09:14:59;96140.16;;;9.44;59.89
44751;BME280;30477;48.224;11.470;2023-12-29T09:17:24;96140.16;;;9.44;60.00
44751;BME280;30477;48.224;11.470;2023-12-29T09:19:50;96141.78;;;9.45;59.99
44751;BME280;30477;48.224;11.470;2023-12-29T09:22:15;96135.69;;;9.46;59.98
44751;BME280;30477;48.224;11.470;2023-12-29T09:24:41;96142.09;;;9.51;59.96
44751;BME280;30477;48.224;11.470;2023-12-29T09:27:07;96140.72;;;9.57;59.91
44751;BME280;30477;48.224;11.470;2023-12-29T09:29:32;96135.03;;;9.63;59.84
44751;BME280;30477;48.224;11.470;2023-12-29T09:31:57;96138.06;;;9.68;59.76
44751;BME280;30477;48.224;11.470;2023-12-29T09:34:23;96130.47;;;9.77;60.08
44751;BME280;30477;48.224;11.470;2023-12-29T09:36:48;96134.81;;;9.86;59.80
44751;BME280;30477;48.224;11.470;2023-12-29T09:39:13;96137.81;;;9.91;59.59
44751;BME280;30477;48.224;11.470;2023-12-29T09:41:42;96134.84;;;9.95;59.56
44751;BME280;30477;48.224;11.470;2023-12-29T09:44:13;96125.31;;;9.96;59.23
44751;BME280;30477;48.224;11.470;2023-12-29T09:46:38;96134.44;;;10.00;59.37
44751;BME280;30477;48.224;11.470;2023-12-29T09:49:08;96132.78;;;9.99;59.36
44751;BME280;30477;48.224;11.470;2023-12-29T09:51:34;96123.41;;;9.98;59.33
44751;BME280;30477;48.224;11.470;2023-12-29T09:54:01;96124.78;;;10.02;59.21
44751;BME280;30477;48.224;11.470;2023-12-29T09:56:27;96130.88;;;10.01;59.12
44751;BME280;30477;48.224;11.470;2023-12-29T09:58:54;96128.84;;;10.05;59.47
44751;BME280;30477;48.224;11.470;2023-12-29T10:01:21;96125.97;;;10.08;59.43
44751;BME280;30477;48.224;11.470;2023-12-29T10:03:47;96131.59;;;10.13;59.40
44751;BME280;30477;48.224;11.470;2023-12-29T10:06:16;96123.16;;;10.21;59.27
44751;BME280;30477;48.224;11.470;2023-12-29T10:08:45;96123.44;;;10.27;59.22
44751;BME280;30477;48.224;11.470;2023-12-29T10:11:14;96114.19;;;10.25;59.27
44751;BME280;30477;48.224;11.470;2023-12-29T10:13:42;96111.84;;;10.22;59.45
44751;BME280;30477;48.224;11.470;2023-12-29T10:18:59;96092.38;;;10.18;59.56
44751;BME280;30477;48.224;11.470;2023-12-29T10:21:41;96094.97;;;10.18;59.84
44751;BME280;30477;48.224;11.470;2023-12-29T10:24:12;96097.03;;;10.33;60.81
44751;BME280;30477;48.224;11.470;2023-12-29T10:26:41;96087.38;;;10.35;60.90
44751;BME280;30477;48.224;11.470;2023-12-29T10:29:09;96087.34;;;10.26;60.87
44751;BME280;30477;48.224;11.470;2023-12-29T10:31:35;96079.31;;;10.19;60.80
44751;BME280;30477;48.224;11.470;2023-12-29T10:34:18;96082.72;;;10.20;61.01
44751;BME280;30477;48.224;11.470;2023-12-29T10:36:48;96079.31;;;10.19;61.29
44751;BME280;30477;48.224;11.470;2023-12-29T10:39:14;96076.59;;;10.21;61.55
44751;BME280;30477;48.224;11.470;2023-12-29T10:41:40;96064.34;;;10.23;61.45
44751;BME280;30477;48.224;11.470;2023-12-29T10:44:08;96057.53;;;10.22;61.55
44751;BME280;30477;48.224;11.470;2023-12-29T10:46:34;96060.78;;;10.24;61.46
44751;BME280;30477;48.224;11.470;2023-12-29T10:49:09;96056.44;;;10.24;61.31
44751;BME280;30477;48.224;11.470;2023-12-29T10:51:35;96058.88;;;10.26;61.54
44751;BME280;30477;48.224;11.470;2023-12-29T10:54:00;96046.91;;;10.25;61.74
44751;BME280;30477;48.224;11.470;2023-12-29T10:56:26;96040.09;;;10.24;61.45
44751;BME280;30477;48.224;11.470;2023-12-29T10:59:05;96048.25;;;10.29;61.69
44751;BME280;30477;48.224;11.470;2023-12-29T11:01:35;96040.25;;;10.32;61.65
44751;BME280;30477;48.224;11.470;2023-12-29T11:04:04;96039.03;;;10.36;61.55
44751;BME280;30477;48.224;11.470;2023-12-29T11:06:50;96044.19;;;10.36;61.50
44751;BME280;30477;48.224;11.470;2023-12-29T11:09:32;96038.72;;;10.39;61.46
44751;BME280;30477;48.224;11.470;2023-12-29T11:12:00;96037.91;;;10.48;61.51
44751;BME280;30477;48.224;11.470;2023-12-29T11:14:26;96038.72;;;10.49;61.25
44751;BME280;30477;48.224;11.470;2023-12-29T11:16:54;96040.63;;;10.47;61.24
44751;BME280;30477;48.224;11.470;2023-12-29T11:19:22;96036.81;;;10.51;61.24
44751;BME280;30477;48.224;11.470;2023-12-29T11:21:56;96037.50;;;10.53;61.26
44751;BME280;30477;48.224;11.470;2023-12-29T11:24:23;96031.22;;;10.55;60.96
44751;BME280;30477;48.224;11.470;2023-12-29T11:26:50;96032.84;;;10.56;61.14
44751;BME280;30477;48.224;11.470;2023-12-29T11:29:16;96027.38;;;10.60;60.88
44751;BME280;30477;48.224;11.470;2023-12-29T11:31:43;96031.31;;;10.64;60.99
44751;BME280;30477;48.224;11.470;2023-12-29T11:34:21;96017.72;;;10.62;61.02
44751;BME280;30477;48.224;11.470;2023-12-29T11:36:50;96042.91;;;10.69;61.00
44751;BME280;30477;48.224;11.470;2023-12-29T11:39:40;96030.75;;;10.70;60.79
44751;BME280;30477;48.224;11.470;2023-12-29T11:42:21;96015.91;;;10.72;60.82
44751;BME280;30477;48.224;11.470;2023-12-29T11:44:49;96023.81;;;10.70;60.92
44751;BME280;30477;48.224;11.470;2023-12-29T11:47:34;96013.69;;;10.77;60.76
44751;BME280;30477;48.224;11.470;2023-12-29T11:50:01;96016.16;;;10.79;60.68
44751;BME280;30477;48.224;11.470;2023-12-29T11:52:36;96007.28;;;10.81;60.32
44751;BME280;30477;48.224;11.470;2023-12-29T11:57:33;96008.13;;;10.82;60.22
44751;BME280;30477;48.224;11.470;2023-12-29T11:59:58;96021.19;;;10.80;60.19
44751;BME280;30477;48.224;11.470;2023-12-29T12:02:27;96017.63;;;10.81;60.11
44751;BME280;30477;48.224;11.470;2023-12-29T12:04:53;96011.22;;;10.85;59.93
44751;BME280;30477;48.224;11.470;2023-12-29T12:09:47;95997.59;;;10.83;59.72
44751;BME280;30477;48.224;11.470;2023-12-29T12:12:43;95996.91;;;10.81;59.75
44751;BME280;30477;48.224;11.470;2023-12-29T12:17:52;95994.50;;;10.80;59.81
44751;BME280;30477;48.224;11.470;2023-12-29T12:20:18;95988.78;;;10.76;59.97
44751;BME280;30477;48.224;11.470;2023-12-29T12:22:43;95983.72;;;10.74;59.94
44751;BME280;30477;48.224;11.470;2023-12-29T12:25:11;95989.03;;;10.73;59.95
44751;BME280;30477;48.224;11.470;2023-12-29T12:27:38;95987.44;;;10.72;59.92
44751;BME280;30477;48.224;11.470;2023-12-29T12:30:03;95987.56;;;10.70;59.91
44751;BME280;30477;48.224;11.470;2023-12-29T12:32:29;95981.28;;;10.73;59.75
44751;BME280;30477;48.224;11.470;2023-12-29T12:34:56;95979.00;;;10.70;60.00
44751;BME280;30477;48.224;11.470;2023-12-29T12:37:26;95986.09;;;10.68;60.11
44751;BME280;30477;48.224;11.470;2023-12-29T12:39:51;95990.16;;;10.70;60.21
44751;BME280;30477;48.224;11.470;2023-12-29T12:42:18;95984.97;;;10.70;60.00
44751;BME280;30477;48.224;11.470;2023-12-29T12:44:56;95994.38;;;10.71;59.99
44751;BME280;30477;48.224;11.470;2023-12-29T12:47:34;95992.59;;;10.72;60.21
44751;BME280;30477;48.224;11.470;2023-12-29T12:50:00;95986.75;;;10.70;60.09
44751;BME280;30477;48.224;11.470;2023-12-29T12:52:30;95988.53;;;10.69;59.90
44751;BME280;30477;48.224;11.470;2023-12-29T12:54:56;95987.31;;;10.64;59.92
44751;BME280;30477;48.224;11.470;2023-12-29T12:57:21;95988.13;;;10.64;60.33
44751;BME280;30477;48.224;11.470;2023-12-29T12:59:48;95992.22;;;10.67;59.96
44751;BME280;30477;48.224;11.470;2023-12-29T13:02:15;96000.25;;;10.64;60.29
44751;BME280;30477;48.224;11.470;2023-12-29T13:04:43;95994.41;;;10.62;60.26
44751;BME280;30477;48.224;11.470;2023-12-29T13:07:09;95992.78;;;10.61;60.17